createdAt,value
2018-06-25T00:01:04.371Z,2.17
2018-06-25T00:03:35.861Z,2.20
2018-06-25T00:06:07.940Z,2.50
2018-06-25T00:08:39.639Z,2.37
2018-06-25T00:11:11.097Z,1.97
2018-06-25T00:13:42.783Z,2.60
2018-06-25T00:16:14.378Z,2.53
2018-06-25T00:18:46.338Z,2.03
2018-06-25T00:21:17.887Z,2.40
2018-06-25T00:23:49.398Z,2.47
2018-06-25T00:26:21.496Z,2.70
2018-06-25T00:28:53.325Z,2.27
2018-06-25T00:31:24.967Z,2.90
2018-06-25T00:33:56.664Z,2.40
2018-06-25T00:36:28.157Z,2.50
2018-06-25T00:38:59.713Z,2.37
2018-06-25T00:41:31.480Z,2.33
2018-06-25T00:44:03.029Z,2.50
2018-06-25T00:46:34.647Z,2.63
2018-06-25T00:49:06.852Z,2.60
2018-06-25T00:51:38.731Z,3.50
2018-06-25T00:54:10.539Z,2.50
2018-06-25T00:56:42.181Z,2.90
2018-06-25T00:59:56.842Z,2.90
2018-06-25T01:02:28.646Z,2.60
2018-06-25T01:05:00.133Z,2.47
2018-06-25T01:07:31.661Z,2.57
2018-06-25T01:10:03.680Z,2.63
2018-06-25T01:12:35.171Z,2.53
2018-06-25T01:15:06.788Z,2.70
2018-06-25T01:17:39.390Z,2.50
2018-06-25T01:20:11.011Z,2.47
2018-06-25T01:22:42.599Z,2.27
2018-06-25T01:25:14.090Z,2.70
2018-06-25T01:27:45.802Z,2.83
2018-06-25T01:30:17.743Z,3.00
2018-06-25T01:32:49.368Z,3.10
2018-06-25T01:35:21.021Z,3.33
2018-06-25T01:37:52.525Z,3.23
2018-06-25T01:40:25.114Z,3.20
2018-06-25T01:42:56.730Z,3.60
2018-06-25T01:45:28.236Z,3.00
2018-06-25T01:47:59.742Z,3.33
2018-06-25T01:50:31.422Z,3.30
2018-06-25T01:53:03.065Z,3.50
2018-06-25T01:55:34.934Z,3.00
2018-06-25T01:58:06.778Z,3.30
2018-06-25T02:00:38.834Z,3.40
2018-06-25T02:03:10.381Z,3.10
2018-06-25T02:05:42.262Z,3.60
2018-06-25T02:08:13.775Z,3.60
2018-06-25T02:10:45.555Z,3.70
2018-06-25T02:13:17.105Z,3.80
2018-06-25T02:15:48.851Z,3.50
2018-06-25T02:18:20.525Z,3.37
2018-06-25T02:20:52.099Z,3.40
2018-06-25T02:23:23.591Z,3.43
2018-06-25T02:25:55.189Z,3.60
2018-06-25T02:28:26.697Z,2.73
2018-06-25T02:30:59.223Z,3.03
2018-06-25T02:33:30.664Z,3.43
2018-06-25T02:36:02.938Z,3.23
2018-06-25T02:38:34.705Z,2.80
2018-06-25T02:41:06.428Z,3.20
2018-06-25T02:43:38.032Z,2.70
2018-06-25T02:46:10.041Z,3.03
2018-06-25T02:48:41.941Z,3.33
2018-06-25T02:51:13.710Z,3.10
2018-06-25T02:53:49.087Z,3.17
2018-06-25T02:56:23.879Z,3.00
2018-06-25T02:58:58.581Z,3.40
2018-06-25T03:01:32.248Z,2.60
2018-06-25T03:04:06.016Z,2.80
2018-06-25T03:06:40.100Z,3.43
2018-06-25T03:09:12.915Z,3.23
2018-06-25T03:11:50.804Z,3.67
2018-06-25T03:14:24.888Z,3.00
2018-06-25T03:16:57.589Z,3.17
2018-06-25T03:19:29.507Z,3.70
2018-06-25T03:22:01.178Z,3.63
2018-06-25T03:24:33.014Z,3.80
2018-06-25T03:27:04.566Z,3.27
2018-06-25T03:29:36.201Z,3.30
2018-06-25T03:32:08.264Z,3.40
2018-06-25T03:34:39.898Z,3.87
2018-06-25T03:37:12.493Z,3.30
2018-06-25T03:39:44.003Z,3.40
2018-06-25T03:42:15.548Z,3.73
2018-06-25T03:44:47.077Z,3.67
2018-06-25T03:47:18.144Z,3.80
2018-06-25T03:49:49.551Z,3.43
2018-06-25T03:52:21.049Z,3.67
2018-06-25T03:54:52.998Z,3.63
2018-06-25T03:57:24.520Z,3.60
2018-06-25T03:59:56.090Z,3.97
2018-06-25T04:02:27.635Z,3.67
2018-06-25T04:04:58.580Z,3.53
2018-06-25T04:07:30.142Z,4.00
2018-06-25T04:10:01.654Z,3.83
2018-06-25T04:12:33.199Z,3.67
2018-06-25T04:15:05.229Z,3.80
2018-06-25T04:17:36.842Z,3.60
2018-06-25T04:20:08.434Z,3.80
2018-06-25T04:22:39.953Z,3.73
2018-06-25T04:25:11.535Z,3.70
2018-06-25T04:27:43.262Z,4.07
2018-06-25T04:30:14.849Z,3.77
2018-06-25T04:32:46.344Z,3.97
2018-06-25T04:35:17.855Z,4.33
2018-06-25T04:37:49.369Z,4.43
2018-06-25T04:40:20.887Z,4.00
2018-06-25T04:42:52.538Z,4.50
2018-06-25T04:45:24.111Z,4.23
2018-06-25T04:47:56.290Z,4.27
2018-06-25T04:50:27.929Z,4.07
2018-06-25T04:52:59.655Z,4.00
2018-06-25T04:55:31.238Z,3.80
2018-06-25T04:58:02.703Z,3.60
2018-06-25T05:00:34.181Z,3.50
2018-06-25T05:03:06.573Z,4.50
2018-06-25T05:05:37.729Z,3.90
2018-06-25T05:08:09.246Z,4.40
2018-06-25T05:10:41.201Z,4.43
2018-06-25T05:13:12.898Z,3.83
2018-06-25T05:15:44.349Z,3.43
2018-06-25T05:18:15.957Z,4.50
2018-06-25T05:20:47.447Z,4.03
2018-06-25T05:23:19.061Z,4.00
2018-06-25T05:25:50.515Z,4.43
2018-06-25T05:28:23.080Z,4.60
2018-06-25T05:30:54.568Z,5.47
2018-06-25T05:33:26.150Z,4.43
2018-06-25T05:35:57.964Z,3.70
2018-06-25T05:38:29.888Z,4.10
2018-06-25T05:41:01.445Z,4.97
2018-06-25T05:43:32.994Z,5.17
2018-06-25T05:46:04.768Z,4.93
2018-06-25T05:48:36.449Z,5.50
2018-06-25T05:51:08.350Z,6.17
2018-06-25T05:53:39.842Z,5.97
2018-06-25T05:56:11.357Z,6.07
2018-06-25T05:58:43.386Z,5.57
2018-06-25T06:01:14.964Z,6.40
2018-06-25T06:03:46.559Z,5.53
2018-06-25T06:06:18.006Z,5.73
2018-06-25T06:08:49.811Z,5.40
2018-06-25T06:11:21.622Z,5.33
2018-06-25T06:13:53.183Z,5.67
2018-06-25T06:16:25.069Z,5.50
2018-06-25T06:18:57.026Z,5.97
2018-06-25T06:21:29.065Z,6.23
2018-06-25T06:24:00.850Z,6.20
2018-06-25T06:26:32.365Z,5.87
2018-06-25T06:29:03.899Z,6.47
2018-06-25T06:31:36.518Z,6.60
2018-06-25T06:34:08.057Z,8.67
2018-06-25T06:36:40.070Z,8.97
2018-06-25T06:39:15.391Z,6.80
2018-06-25T06:41:47.277Z,6.77
2018-06-25T06:44:18.951Z,6.43
2018-06-25T06:46:50.576Z,5.23
2018-06-25T06:49:27.518Z,5.67
2018-06-25T06:51:59.315Z,5.33
2018-06-25T06:54:30.966Z,5.53
2018-06-25T06:57:02.755Z,5.90
2018-06-25T06:59:34.988Z,5.70
2018-06-25T07:02:06.729Z,6.00
2018-06-25T07:04:38.664Z,6.50
2018-06-25T07:07:10.405Z,6.17
2018-06-25T07:09:41.985Z,5.73
2018-06-25T07:12:13.824Z,6.50
2018-06-25T07:14:46.542Z,6.13
2018-06-25T07:17:18.774Z,5.67
2018-06-25T07:19:50.677Z,5.77
2018-06-25T07:22:22.228Z,6.07
2018-06-25T07:24:54.199Z,5.50
2018-06-25T07:27:28.161Z,6.50
2018-06-25T07:29:59.729Z,6.27
2018-06-25T07:32:31.189Z,5.40
2018-06-25T07:35:03.150Z,6.17
2018-06-25T07:37:34.865Z,5.47
2018-06-25T07:40:07.149Z,5.13
2018-06-25T07:42:38.831Z,5.67
2018-06-25T07:45:11.205Z,5.53
2018-06-25T07:47:42.926Z,5.13
2018-06-25T07:50:15.083Z,5.10
2018-06-25T07:52:46.793Z,5.10
2018-06-25T07:55:19.949Z,4.20
2018-06-25T07:57:51.785Z,4.77
2018-06-25T08:00:24.120Z,4.17
2018-06-25T08:02:56.015Z,4.63
2018-06-25T08:05:27.949Z,4.33
2018-06-25T08:07:59.437Z,4.73
2018-06-25T08:10:31.059Z,4.60
2018-06-25T08:13:02.941Z,4.77
2018-06-25T08:15:35.156Z,4.70
2018-06-25T08:18:07.061Z,5.10
2018-06-25T08:20:38.831Z,4.83
2018-06-25T08:23:11.005Z,4.93
2018-06-25T08:25:42.908Z,4.80
2018-06-25T08:28:14.439Z,4.43
2018-06-25T08:30:46.736Z,5.03
2018-06-25T08:33:18.419Z,5.17
2018-06-25T08:35:50.644Z,4.60
2018-06-25T08:38:22.446Z,5.00
2018-06-25T08:40:54.523Z,4.13
2018-06-25T08:43:26.591Z,4.70
2018-06-25T08:45:59.155Z,4.50
2018-06-25T08:48:30.775Z,4.63
2018-06-25T08:51:02.400Z,4.57
2018-06-25T08:53:34.338Z,4.63
2018-06-25T08:56:06.298Z,4.57
2018-06-25T08:58:37.973Z,5.03
2018-06-25T09:01:09.424Z,4.57
2018-06-25T09:03:41.289Z,4.23
2018-06-25T09:06:12.797Z,4.60
2018-06-25T09:08:44.352Z,4.20
2018-06-25T09:11:16.275Z,4.37
2018-06-25T09:13:47.849Z,3.90
2018-06-25T09:16:19.957Z,4.73
2018-06-25T09:18:51.665Z,4.20
2018-06-25T09:21:23.353Z,4.30
2018-06-25T09:23:54.879Z,3.97
2018-06-25T09:26:37.356Z,3.63
2018-06-25T09:29:09.353Z,3.73
2018-06-25T09:31:40.700Z,4.10
2018-06-25T09:34:17.280Z,3.80
2018-06-25T09:36:48.746Z,3.63
2018-06-25T09:39:20.196Z,3.90
2018-06-25T09:41:51.683Z,4.40
2018-06-25T09:44:23.236Z,4.03
2018-06-25T09:46:54.787Z,3.77
2018-06-25T09:49:26.507Z,4.00
2018-06-25T09:51:58.031Z,3.60
2018-06-25T09:54:29.702Z,3.30
2018-06-25T09:57:01.785Z,3.23
2018-06-25T09:59:33.286Z,4.23
2018-06-25T10:02:05.237Z,3.53
2018-06-25T10:04:36.885Z,3.50
2018-06-25T10:07:08.618Z,3.73
2018-06-25T10:09:40.322Z,3.37
2018-06-25T10:12:11.913Z,3.10
2018-06-25T10:14:43.465Z,3.70
2018-06-25T10:17:15.310Z,3.40
2018-06-25T10:19:47.000Z,2.83
2018-06-25T10:22:18.550Z,3.13
2018-06-25T10:24:50.090Z,3.53
2018-06-25T10:27:21.757Z,3.23
2018-06-25T10:29:53.582Z,3.73
2018-06-25T10:32:25.342Z,3.27
2018-06-25T10:34:57.156Z,3.47
2018-06-25T10:37:28.876Z,2.67
2018-06-25T10:40:00.693Z,2.53
2018-06-25T10:42:32.511Z,3.00
2018-06-25T10:45:04.649Z,2.80
2018-06-25T10:47:36.558Z,3.20
2018-06-25T10:50:08.707Z,2.97
2018-06-25T10:52:40.452Z,2.67
2018-06-25T10:55:12.292Z,2.53
2018-06-25T10:57:44.274Z,2.73
2018-06-25T11:00:16.245Z,3.00
2018-06-25T11:02:47.859Z,3.50
2018-06-25T11:05:19.814Z,3.03
2018-06-25T11:07:52.653Z,3.10
2018-06-25T11:10:24.609Z,3.10
2018-06-25T11:12:56.653Z,3.20
2018-06-25T11:15:27.981Z,2.67
2018-06-25T11:17:59.245Z,3.50
2018-06-25T11:20:31.437Z,3.30
2018-06-25T11:23:03.888Z,3.37
2018-06-25T11:25:35.704Z,3.20
2018-06-25T11:28:08.297Z,3.47
2018-06-25T11:30:40.928Z,3.33
2018-06-25T11:33:14.935Z,3.63
2018-06-25T11:35:49.320Z,3.13
2018-06-25T11:38:21.837Z,3.80
2018-06-25T11:40:54.021Z,3.40
2018-06-25T11:43:25.542Z,3.10
2018-06-25T11:45:57.457Z,3.00
2018-06-25T11:48:28.878Z,2.63
2018-06-25T11:51:00.194Z,2.60
2018-06-25T11:53:31.779Z,2.60
2018-06-25T11:56:03.686Z,2.93
2018-06-25T11:58:34.923Z,2.47
2018-06-25T12:01:06.101Z,3.10
2018-06-25T12:03:37.829Z,2.93
2018-06-25T12:06:09.747Z,3.03
2018-06-25T12:08:41.490Z,2.90
2018-06-25T12:11:13.454Z,3.33
2018-06-25T12:13:45.365Z,2.50
2018-06-25T12:16:16.890Z,2.80
2018-06-25T12:18:49.168Z,3.03
2018-06-25T12:21:21.396Z,3.22
2018-06-25T12:23:53.680Z,3.10
2018-06-25T12:26:26.011Z,3.40
2018-06-25T12:28:57.905Z,3.12
2018-06-25T12:31:30.235Z,2.70
2018-06-25T12:34:02.480Z,3.05
2018-06-25T12:36:34.645Z,2.95
2018-06-25T12:39:10.521Z,2.30
2018-06-25T12:41:42.882Z,2.40
2018-06-25T12:44:15.082Z,2.70
2018-06-25T12:46:46.809Z,2.20
2018-06-25T12:49:18.431Z,3.00
2018-06-25T12:51:49.989Z,2.20
2018-06-25T12:54:22.418Z,2.62
2018-06-25T12:56:54.762Z,3.55
2018-06-25T12:59:27.766Z,3.02
2018-06-25T13:01:59.992Z,2.55
2018-06-25T13:04:31.923Z,2.55
2018-06-25T13:07:04.782Z,2.45
2018-06-25T13:09:36.709Z,2.08
2018-06-25T13:12:09.210Z,1.62
2018-06-25T13:14:41.569Z,2.10
2018-06-25T13:17:14.414Z,2.10
2018-06-25T13:19:46.884Z,2.20
2018-06-25T13:22:20.121Z,2.33
2018-06-25T13:24:52.995Z,2.02
2018-06-25T13:27:25.109Z,1.90
2018-06-25T13:29:57.729Z,2.30
2018-06-25T13:32:31.454Z,2.35
2018-06-25T13:35:03.605Z,2.40
2018-06-25T13:37:35.941Z,2.47
2018-06-25T13:40:08.593Z,2.05
2018-06-25T13:42:40.606Z,2.85
2018-06-25T13:45:12.453Z,2.10
2018-06-25T13:47:43.977Z,2.52
2018-06-25T13:50:15.766Z,2.60
2018-06-25T13:52:47.834Z,4.70
2018-06-25T13:55:20.085Z,2.55
2018-06-25T13:57:52.726Z,2.33
2018-06-25T14:00:25.335Z,3.58
2018-06-25T14:02:57.390Z,2.70
2018-06-25T14:05:36.248Z,2.62
2018-06-25T14:08:09.107Z,2.17
2018-06-25T14:10:41.763Z,2.30
2018-06-25T14:13:15.912Z,2.15
2018-06-25T14:15:48.346Z,2.20
2018-06-25T14:18:20.722Z,2.45
2018-06-25T14:20:53.969Z,2.12
2018-06-25T14:23:27.943Z,2.40
2018-06-25T14:26:05.162Z,2.50
2018-06-25T14:28:38.062Z,2.50
2018-06-25T14:31:15.283Z,3.10
2018-06-25T14:33:51.959Z,2.30
2018-06-25T14:36:23.671Z,2.30
2018-06-25T14:38:55.935Z,2.30
2018-06-25T14:41:27.649Z,2.50
2018-06-25T14:43:59.991Z,2.27
2018-06-25T14:46:31.596Z,2.70
2018-06-25T14:49:04.023Z,2.23
2018-06-25T14:51:35.613Z,2.53
2018-06-25T14:54:07.525Z,2.27
2018-06-25T14:56:39.297Z,2.27
2018-06-25T14:59:11.025Z,2.43
2018-06-25T15:01:42.818Z,2.47
2018-06-25T15:04:14.298Z,2.00
2018-06-25T15:06:46.361Z,2.00
2018-06-25T15:09:18.532Z,1.77
2018-06-25T15:11:50.158Z,2.13
2018-06-25T15:14:22.034Z,2.00
2018-06-25T15:16:53.614Z,2.80
2018-06-25T15:19:26.145Z,2.40
2018-06-25T15:21:58.245Z,2.08
2018-06-25T15:24:30.628Z,2.02
2018-06-25T15:27:02.306Z,2.00
2018-06-25T15:29:34.704Z,2.02
2018-06-25T15:32:06.962Z,2.15
2018-06-25T15:34:39.180Z,1.98
2018-06-25T15:37:11.697Z,2.00
2018-06-25T15:39:46.843Z,1.75
2018-06-25T15:42:20.205Z,2.25
2018-06-25T15:44:52.283Z,1.70
2018-06-25T15:47:24.810Z,1.95
2018-06-25T15:49:57.189Z,2.05
2018-06-25T15:52:30.052Z,1.70
2018-06-25T15:55:02.505Z,1.70
2018-06-25T15:57:35.091Z,1.92
2018-06-25T16:00:08.472Z,1.90
2018-06-25T16:02:41.058Z,1.60
2018-06-25T16:05:14.006Z,1.85
2018-06-25T16:07:52.865Z,1.85
2018-06-25T16:10:25.754Z,1.70
2018-06-25T16:12:57.742Z,1.50
2018-06-25T16:15:29.876Z,1.70
2018-06-25T16:18:02.611Z,1.92
2018-06-25T16:20:35.629Z,1.60
2018-06-25T16:23:08.277Z,1.70
2018-06-25T16:25:40.940Z,1.60
2018-06-25T16:28:12.803Z,1.50
2018-06-25T16:30:44.748Z,1.90
2018-06-25T16:33:17.431Z,1.52
2018-06-25T16:35:50.093Z,1.60
2018-06-25T16:38:23.632Z,1.70
2018-06-25T16:40:56.948Z,1.70
2018-06-25T16:43:29.794Z,1.80
2018-06-25T16:46:00.993Z,1.80
2018-06-25T16:48:32.704Z,1.80
2018-06-25T16:51:05.060Z,1.50
2018-06-25T16:53:37.434Z,1.60
2018-06-25T16:56:09.248Z,1.70
2018-06-25T16:58:40.957Z,1.77
2018-06-25T17:01:12.227Z,1.80
2018-06-25T17:03:44.671Z,1.63
2018-06-25T17:06:15.945Z,1.40
2018-06-25T17:08:47.803Z,1.13
2018-06-25T17:11:19.982Z,1.60
2018-06-25T17:13:52.774Z,1.50
2018-06-25T17:16:24.788Z,1.40
2018-06-25T17:18:57.524Z,1.17
2018-06-25T17:21:29.932Z,1.53
2018-06-25T17:24:01.523Z,1.60
2018-06-25T17:26:33.882Z,1.47
2018-06-25T17:29:05.752Z,1.70
2018-06-25T17:31:37.325Z,1.37
2018-06-25T17:34:08.967Z,2.17
2018-06-25T17:36:40.582Z,1.87
2018-06-25T17:39:13.106Z,1.57
2018-06-25T17:41:44.723Z,1.70
2018-06-25T17:44:17.105Z,1.70
2018-06-25T17:46:48.977Z,1.67
2018-06-25T17:49:21.467Z,1.43
2018-06-25T17:51:55.020Z,1.33
2018-06-25T17:54:26.694Z,1.40
2018-06-25T17:56:58.762Z,1.40
2018-06-25T17:59:31.595Z,1.70
2018-06-25T18:02:05.220Z,1.30
2018-06-25T18:04:38.155Z,1.40
2018-06-25T18:07:10.185Z,1.40
2018-06-25T18:09:42.703Z,1.53
2018-06-25T18:12:14.447Z,1.30
2018-06-25T18:14:46.529Z,1.60
2018-06-25T18:17:18.030Z,1.63
2018-06-25T18:19:49.635Z,1.77
2018-06-25T18:22:21.815Z,1.67
2018-06-25T18:24:53.422Z,1.70
2018-06-25T18:27:26.404Z,1.50
2018-06-25T18:29:58.008Z,1.90
2018-06-25T18:32:29.802Z,1.53
2018-06-25T18:35:01.516Z,2.10
2018-06-25T18:37:33.642Z,1.53
2018-06-25T18:40:06.332Z,1.90
2018-06-25T18:42:38.692Z,1.70
2018-06-25T18:45:11.277Z,1.70
2018-06-25T18:47:43.234Z,1.53
2018-06-25T18:50:14.943Z,1.70
2018-06-25T18:52:46.857Z,1.90
2018-06-25T18:55:18.629Z,1.70
2018-06-25T18:57:50.656Z,1.70
2018-06-25T19:00:22.213Z,1.50
2018-06-25T19:02:54.288Z,1.80
2018-06-25T19:05:25.930Z,1.67
2018-06-25T19:07:57.594Z,1.43
2018-06-25T19:10:29.622Z,1.80
2018-06-25T19:13:01.159Z,1.90
2018-06-25T19:15:33.064Z,1.50
2018-06-25T19:18:05.415Z,1.90
2018-06-25T19:20:37.081Z,2.00
2018-06-25T19:23:09.154Z,1.73
2018-06-25T19:25:40.801Z,2.00
2018-06-25T19:28:13.594Z,1.70
2018-06-25T19:30:45.154Z,1.97
2018-06-25T19:33:17.673Z,1.90
2018-06-25T19:35:49.224Z,1.90
2018-06-25T19:38:22.436Z,1.63
2018-06-25T19:40:53.710Z,1.90
2018-06-25T19:43:25.334Z,1.80
2018-06-25T19:45:56.971Z,1.37
2018-06-25T19:48:28.737Z,1.87
2018-06-25T19:51:00.345Z,2.00
2018-06-25T19:53:32.646Z,1.87
2018-06-25T19:56:06.220Z,1.50
2018-06-25T19:58:38.136Z,2.00
2018-06-25T20:01:10.884Z,1.90
2018-06-25T20:03:43.266Z,1.87
2018-06-25T20:06:16.061Z,2.40
2018-06-25T20:08:48.737Z,2.20
2018-06-25T20:11:20.474Z,1.90
2018-06-25T20:13:52.503Z,2.33
2018-06-25T20:16:24.784Z,2.10
2018-06-25T20:18:56.762Z,2.50
2018-06-25T20:21:28.587Z,2.07
2018-06-25T20:24:01.012Z,2.50
2018-06-25T20:26:35.879Z,2.20
2018-06-25T20:29:08.098Z,2.37
2018-06-25T20:31:39.687Z,2.20
2018-06-25T20:34:11.340Z,1.97
2018-06-25T20:36:43.621Z,2.20
2018-06-25T20:39:15.329Z,2.53
2018-06-25T20:41:47.734Z,2.17
2018-06-25T20:44:19.312Z,2.23
2018-06-25T20:46:50.840Z,2.23
2018-06-25T20:49:22.591Z,2.23
2018-06-25T20:51:56.021Z,2.37
2018-06-25T20:54:27.848Z,2.27
2018-06-25T20:56:59.557Z,2.50
2018-06-25T20:59:31.096Z,2.63
2018-06-25T21:02:02.801Z,2.57
2018-06-25T21:04:35.658Z,2.60
2018-06-25T21:07:07.786Z,2.47
2018-06-25T21:09:39.430Z,2.13
2018-06-25T21:12:11.239Z,2.43
2018-06-25T21:14:43.090Z,2.73
2018-06-25T21:17:15.246Z,2.03
2018-06-25T21:19:46.912Z,2.67
2018-06-25T21:22:18.698Z,2.30
2018-06-25T21:24:50.274Z,2.90
2018-06-25T21:27:21.812Z,2.43
2018-06-25T21:29:53.645Z,2.70
2018-06-25T21:32:25.186Z,2.40
2018-06-25T21:34:56.810Z,2.67
2018-06-25T21:37:28.349Z,2.70
2018-06-25T21:39:59.922Z,2.73
2018-06-25T21:42:31.681Z,2.50
2018-06-25T21:45:04.704Z,2.70
2018-06-25T21:47:36.693Z,2.50
2018-06-25T21:50:08.693Z,2.60
2018-06-25T21:52:40.348Z,2.97
2018-06-25T21:55:11.833Z,2.80
2018-06-25T21:57:43.778Z,2.70
2018-06-25T22:00:15.392Z,2.80
2018-06-25T22:02:47.061Z,2.80
2018-06-25T22:05:18.765Z,2.53
2018-06-25T22:07:50.349Z,2.40
2018-06-25T22:10:22.489Z,2.17
2018-06-25T22:12:53.823Z,2.70
2018-06-25T22:15:25.258Z,3.50
2018-06-25T22:17:56.967Z,3.30
2018-06-25T22:20:29.233Z,3.10
2018-06-25T22:23:01.057Z,2.63
2018-06-25T22:25:33.214Z,2.80
2018-06-25T22:28:05.698Z,3.03
2018-06-25T22:30:37.159Z,3.07
2018-06-25T22:33:08.852Z,2.63
2018-06-25T22:35:40.322Z,3.20
2018-06-25T22:38:11.809Z,3.03
2018-06-25T22:40:43.908Z,3.00
2018-06-25T22:43:15.496Z,2.90
2018-06-25T22:45:47.362Z,2.70
2018-06-25T22:48:18.911Z,3.27
2018-06-25T22:50:50.549Z,2.83
2018-06-25T22:53:22.446Z,2.90
2018-06-25T22:55:53.897Z,2.80
2018-06-25T22:58:25.491Z,2.80
2018-06-25T23:00:57.078Z,2.87
2018-06-25T23:03:28.649Z,3.00
2018-06-25T23:06:00.285Z,3.10
2018-06-25T23:08:32.391Z,3.30
2018-06-25T23:11:03.585Z,3.00
2018-06-25T23:13:35.009Z,3.07
2018-06-25T23:16:06.461Z,3.03
2018-06-25T23:18:38.053Z,2.87
2018-06-25T23:21:09.891Z,3.23
2018-06-25T23:23:42.883Z,3.30
2018-06-25T23:26:14.424Z,3.17
2018-06-25T23:28:45.434Z,3.40
2018-06-25T23:31:16.658Z,3.10
2018-06-25T23:33:48.161Z,2.87
2018-06-25T23:36:20.035Z,2.93
2018-06-25T23:38:51.658Z,3.30
2018-06-25T23:41:23.509Z,3.70
2018-06-25T23:43:54.757Z,3.30
2018-06-25T23:46:26.059Z,3.20
2018-06-25T23:48:57.670Z,3.00
2018-06-25T23:51:29.263Z,3.10
2018-06-25T23:54:00.871Z,3.00
2018-06-25T23:56:32.474Z,2.83
2018-06-25T23:59:04.113Z,3.00
